createdAt,value
2023-01-02T00:00:19.134Z,13.80
2023-01-02T00:02:49.929Z,11.97
2023-01-02T00:05:19.166Z,12.77
2023-01-02T00:07:48.285Z,13.13
2023-01-02T00:10:19.609Z,12.37
2023-01-02T00:12:48.902Z,12.40
2023-01-02T00:15:17.873Z,12.17
2023-01-02T00:17:47.161Z,14.07
2023-01-02T00:20:16.159Z,14.80
2023-01-02T00:22:44.962Z,14.30
2023-01-02T00:25:14.495Z,12.50
2023-01-02T00:27:44.866Z,14.00
2023-01-02T00:30:14.964Z,14.00
2023-01-02T00:32:43.697Z,12.93
2023-01-02T00:35:13.105Z,13.50
2023-01-02T00:38:00.830Z,13.17
2023-01-02T00:40:29.921Z,14.50
2023-01-02T00:43:00.295Z,13.23
2023-01-02T00:45:29.550Z,14.00
2023-01-02T00:47:58.707Z,15.23
2023-01-02T00:50:28.237Z,14.60
2023-01-02T00:52:57.837Z,12.80
2023-01-02T00:55:27.052Z,15.00
2023-01-02T00:57:56.110Z,12.43
2023-01-02T01:00:26.361Z,15.60
2023-01-02T01:02:59.158Z,11.90
2023-01-02T01:05:29.382Z,14.03
2023-01-02T01:08:00.644Z,12.73
2023-01-02T01:10:30.137Z,12.73
2023-01-02T01:13:00.116Z,12.30
2023-01-02T01:15:30.452Z,13.97
2023-01-02T01:17:59.875Z,11.83
2023-01-02T01:21:06.193Z,13.10
2023-01-02T01:24:29.578Z,13.40
2023-01-02T01:27:36.017Z,11.53
2023-01-02T01:30:07.533Z,13.30
2023-01-02T01:32:38.671Z,13.23
2023-01-02T01:35:09.541Z,12.97
2023-01-02T01:37:40.396Z,12.43
2023-01-02T01:40:12.447Z,13.13
2023-01-02T01:42:41.300Z,12.70
2023-01-02T01:45:16.011Z,14.30
2023-01-02T01:47:51.238Z,13.83
2023-01-02T01:50:22.985Z,12.73
2023-01-02T01:52:56.198Z,12.00
2023-01-02T01:55:29.132Z,12.53
2023-01-02T01:58:35.443Z,12.43
2023-01-02T02:01:05.681Z,12.40
2023-01-02T02:03:37.527Z,12.07
2023-01-02T02:06:07.989Z,12.63
2023-01-02T02:08:43.957Z,13.77
2023-01-02T02:11:15.524Z,13.23
2023-01-02T02:13:44.551Z,13.90
2023-01-02T02:16:22.087Z,12.27
2023-01-02T02:27:12.138Z,14.07
2023-01-02T02:34:48.327Z,12.90
2023-01-02T02:37:29.300Z,12.77
2023-01-02T02:40:20.375Z,13.63
2023-01-02T02:43:01.960Z,12.77
2023-01-02T02:45:42.019Z,12.67
2023-01-02T02:48:18.330Z,12.97
2023-01-02T02:50:57.240Z,13.27
2023-01-02T02:53:33.913Z,13.97
2023-01-02T02:56:06.737Z,12.63
2023-01-02T02:58:37.786Z,13.47
2023-01-02T03:01:08.668Z,12.57
2023-01-02T03:03:37.992Z,14.00
2023-01-02T03:06:18.871Z,13.83
2023-01-02T03:09:00.684Z,13.73
2023-01-02T03:11:41.271Z,13.40
2023-01-02T03:14:16.193Z,13.50
2023-01-02T03:16:47.187Z,14.07
2023-01-02T03:19:21.765Z,14.20
2023-01-02T03:21:58.595Z,13.87
2023-01-02T03:25:22.630Z,13.10
2023-01-02T03:27:57.968Z,13.67
2023-01-02T03:30:27.844Z,14.30
2023-01-02T03:32:59.971Z,12.83
2023-01-02T03:35:33.739Z,12.60
2023-01-02T03:38:09.448Z,12.87
2023-01-02T03:40:43.064Z,13.60
2023-01-02T03:43:18.185Z,12.17
2023-01-02T03:45:50.444Z,13.23
2023-01-02T03:48:28.316Z,13.20
2023-01-02T03:50:59.676Z,13.83
2023-01-02T03:53:31.730Z,13.00
2023-01-02T03:56:13.151Z,11.80
2023-01-02T03:59:08.020Z,13.17
2023-01-02T04:02:02.428Z,13.30
2023-01-02T04:04:40.643Z,13.57
2023-01-02T04:07:16.728Z,12.13
2023-01-02T04:09:48.410Z,13.47
2023-01-02T04:12:24.447Z,13.47
2023-01-02T04:15:00.478Z,14.60
2023-01-02T04:17:33.577Z,12.93
2023-01-02T04:20:07.338Z,11.90
2023-01-02T04:22:41.573Z,13.20
2023-01-02T04:25:14.412Z,12.83
2023-01-02T04:27:50.366Z,13.00
2023-01-02T04:30:20.894Z,13.60
2023-01-02T04:32:50.572Z,12.73
2023-01-02T04:35:23.140Z,12.53
2023-01-02T04:37:53.324Z,12.83
2023-01-02T04:40:26.221Z,13.17
2023-01-02T04:42:59.349Z,13.07
2023-01-02T04:45:30.010Z,13.67
2023-01-02T04:48:00.667Z,15.27
2023-01-02T04:50:30.603Z,12.47
2023-01-02T04:56:40.484Z,13.50
2023-01-02T04:59:10.037Z,13.73
2023-01-02T05:01:43.221Z,12.37
2023-01-02T05:04:12.102Z,13.10
2023-01-02T05:06:41.904Z,12.93
2023-01-02T05:12:54.162Z,12.30
2023-01-02T05:15:23.510Z,13.37
2023-01-02T05:17:53.798Z,13.00
2023-01-02T05:20:22.554Z,12.87
2023-01-02T05:23:48.624Z,11.90
2023-01-02T05:26:35.959Z,11.97
2023-01-02T05:29:05.215Z,12.57
2023-01-02T05:31:53.088Z,13.20
2023-01-02T05:34:23.726Z,12.63
2023-01-02T05:36:52.509Z,11.87
2023-01-02T05:39:21.476Z,11.83
2023-01-02T05:41:50.090Z,14.53
2023-01-02T05:45:21.754Z,12.50
2023-01-02T05:47:50.639Z,12.73
2023-01-02T05:50:20.998Z,12.37
2023-01-02T05:52:49.976Z,13.70
2023-01-02T05:55:18.932Z,12.97
2023-01-02T05:57:47.772Z,12.97
2023-01-02T06:00:17.285Z,12.73
2023-01-02T06:02:48.325Z,14.43
2023-01-02T06:05:17.904Z,12.20
2023-01-02T06:07:48.252Z,13.90
2023-01-02T06:10:17.034Z,13.37
2023-01-02T06:12:45.896Z,12.07
2023-01-02T06:15:14.661Z,12.30
2023-01-02T06:17:43.450Z,16.40
2023-01-02T06:20:13.324Z,12.07
2023-01-02T06:22:42.813Z,13.43
2023-01-02T06:25:13.260Z,12.87
2023-01-02T06:27:41.994Z,13.77
2023-01-02T06:30:11.858Z,13.07
2023-01-02T06:32:41.323Z,13.93
2023-01-02T06:35:10.932Z,12.77
2023-01-02T06:37:44.375Z,13.30
2023-01-02T06:40:14.772Z,12.50
2023-01-02T06:42:44.972Z,13.67
2023-01-02T06:45:32.458Z,13.03
2023-01-02T06:48:01.304Z,11.47
2023-01-02T06:50:34.794Z,11.30
2023-01-02T06:53:04.133Z,9.63
2023-01-02T06:55:34.526Z,10.03
2023-01-02T06:58:09.191Z,9.43
2023-01-02T07:00:40.217Z,10.97
2023-01-02T07:03:08.934Z,9.50
2023-01-02T07:05:37.902Z,10.23
2023-01-02T07:08:07.991Z,12.03
2023-01-02T07:10:38.597Z,9.57
2023-01-02T07:13:07.652Z,9.33
2023-01-02T07:15:36.637Z,9.40
2023-01-02T07:18:05.606Z,9.90
2023-01-02T07:20:34.889Z,10.33
2023-01-02T07:23:04.119Z,9.80
2023-01-02T07:25:40.838Z,8.93
2023-01-02T07:28:15.529Z,9.77
2023-01-02T07:30:44.876Z,10.70
2023-01-02T07:33:13.912Z,9.57
2023-01-02T07:35:44.205Z,8.63
2023-01-02T07:38:13.401Z,10.23
2023-01-02T07:40:42.420Z,10.40
2023-01-02T07:43:11.237Z,10.37
2023-01-02T07:45:47.936Z,11.10
2023-01-02T07:48:19.083Z,10.40
2023-01-02T07:50:48.081Z,11.27
2023-01-02T07:56:02.281Z,10.53
2023-01-02T07:58:32.252Z,10.30
2023-01-02T08:01:07.901Z,10.17
2023-01-02T08:03:37.567Z,11.93
2023-01-02T08:06:08.705Z,10.90
2023-01-02T08:08:38.232Z,10.37
2023-01-02T08:11:08.329Z,10.20
2023-01-02T08:13:37.387Z,9.63
2023-01-02T08:16:10.415Z,10.17
2023-01-02T08:18:39.970Z,10.60
2023-01-02T08:21:09.913Z,10.30
2023-01-02T08:23:39.229Z,9.73
2023-01-02T08:26:10.023Z,9.93
2023-01-02T08:28:41.111Z,10.37
2023-01-02T08:31:15.659Z,9.93
2023-01-02T08:33:44.896Z,11.33
2023-01-02T08:36:14.732Z,9.73
2023-01-02T08:38:43.757Z,10.63
2023-01-02T08:41:12.546Z,10.17
2023-01-02T08:43:41.269Z,9.67
2023-01-02T08:46:12.331Z,9.83
2023-01-02T08:48:41.095Z,10.20
2023-01-02T08:51:09.744Z,10.17
2023-01-02T08:53:38.552Z,11.13
2023-01-02T08:56:22.477Z,10.43
2023-01-02T08:58:53.082Z,8.73
2023-01-02T09:01:24.240Z,10.70
2023-01-02T09:03:53.821Z,10.47
2023-01-02T09:06:24.170Z,9.87
2023-01-02T09:08:53.751Z,10.13
2023-01-02T09:11:25.000Z,9.67
2023-01-02T09:13:54.516Z,11.27
2023-01-02T09:16:24.723Z,9.80
2023-01-02T09:18:53.825Z,10.13
2023-01-02T09:21:22.475Z,9.83
2023-01-02T09:23:51.263Z,11.50
2023-01-02T09:26:20.359Z,9.80
2023-01-02T09:28:49.270Z,10.47
2023-01-02T09:31:19.191Z,10.10
2023-01-02T09:33:49.874Z,10.57
2023-01-02T09:36:20.513Z,9.57
2023-01-02T09:38:53.025Z,10.13
2023-01-02T09:41:33.608Z,11.27
2023-01-02T09:44:06.466Z,10.80
2023-01-02T09:46:41.828Z,11.37
2023-01-02T09:49:15.765Z,10.67
2023-01-02T09:51:45.491Z,13.77
2023-01-02T09:54:22.827Z,11.50
2023-01-02T09:57:00.670Z,9.53
2023-01-02T09:59:34.797Z,10.83
2023-01-02T10:02:18.175Z,10.93
2023-01-02T10:05:07.021Z,10.57
2023-01-02T10:07:42.333Z,10.40
2023-01-02T10:10:18.202Z,11.50
2023-01-02T10:12:58.565Z,12.73
2023-01-02T10:15:29.539Z,10.73
2023-01-02T10:18:05.379Z,10.00
2023-01-02T10:20:41.553Z,12.53
2023-01-02T10:23:14.528Z,9.70
2023-01-02T10:25:52.719Z,11.00
2023-01-02T10:28:29.481Z,10.30
2023-01-02T10:31:06.954Z,10.47
2023-01-02T10:33:45.631Z,11.37
2023-01-02T10:36:25.163Z,11.37
2023-01-02T10:38:55.355Z,10.90
2023-01-02T10:41:24.378Z,10.80
2023-01-02T10:43:56.923Z,12.53
2023-01-02T10:46:29.501Z,11.27
2023-01-02T10:48:59.569Z,10.77
2023-01-02T10:51:30.731Z,13.17
2023-01-02T10:54:06.201Z,10.63
2023-01-02T10:56:37.578Z,12.23
2023-01-02T10:59:17.501Z,12.00
2023-01-02T11:01:52.565Z,14.17
2023-01-02T11:04:24.920Z,12.77
2023-01-02T11:06:58.131Z,13.07
2023-01-02T11:09:28.896Z,12.20
2023-01-02T11:12:00.152Z,12.23
2023-01-02T11:14:33.299Z,12.63
2023-01-02T11:17:08.198Z,12.67
2023-01-02T11:19:42.802Z,11.83
2023-01-02T11:22:15.204Z,11.67
2023-01-02T11:24:59.861Z,13.33
2023-01-02T11:27:33.462Z,11.40
2023-01-02T11:30:09.814Z,11.00
2023-01-02T11:32:40.381Z,12.40
2023-01-02T11:35:35.184Z,13.20
2023-01-02T11:38:05.703Z,11.93
2023-01-02T11:40:34.893Z,11.17
2023-01-02T11:43:26.844Z,10.90
2023-01-02T11:45:56.989Z,11.97
2023-01-02T11:48:29.908Z,11.80
2023-01-02T11:51:00.827Z,10.93
2023-01-02T11:57:06.638Z,11.63
2023-01-02T11:59:44.241Z,12.57
2023-01-02T12:02:20.913Z,11.23
2023-01-02T12:04:51.723Z,10.60
2023-01-02T12:07:44.044Z,10.27
2023-01-02T12:10:44.258Z,10.87
2023-01-02T12:13:44.443Z,9.70
2023-01-02T12:16:29.055Z,9.97
2023-01-02T12:19:33.622Z,10.00
2023-01-02T12:22:16.540Z,9.80
2023-01-02T12:25:06.211Z,10.17
2023-01-02T12:28:01.373Z,10.63
2023-01-02T12:31:08.234Z,10.33
2023-01-02T12:33:46.516Z,11.33
2023-01-02T12:36:36.374Z,9.80
2023-01-02T12:39:38.960Z,10.40
2023-01-02T12:42:34.655Z,10.53
2023-01-02T12:45:05.080Z,9.97
2023-01-02T12:47:58.751Z,10.23
2023-01-02T12:50:56.812Z,9.70
2023-01-02T12:54:19.889Z,9.27
2023-01-02T12:57:02.849Z,9.87
2023-01-02T13:00:01.844Z,10.17
2023-01-02T13:03:08.140Z,10.87
2023-01-02T13:05:44.724Z,10.47
2023-01-02T13:08:20.224Z,9.80
2023-01-02T13:10:54.844Z,10.87
2023-01-02T13:13:28.156Z,10.50
2023-01-02T13:16:05.159Z,11.63
2023-01-02T13:19:00.218Z,8.90
2023-01-02T13:21:35.790Z,8.93
2023-01-02T13:24:05.846Z,10.93
2023-01-02T13:26:35.399Z,9.97
2023-01-02T13:29:25.945Z,10.10
2023-01-02T13:32:06.235Z,10.93
2023-01-02T13:34:40.953Z,11.47
2023-01-02T13:37:13.561Z,9.80
2023-01-02T13:39:49.807Z,11.03
2023-01-02T13:42:42.702Z,9.97
2023-01-02T13:45:15.478Z,10.23
2023-01-02T13:47:50.819Z,10.50
2023-01-02T13:50:24.877Z,10.90
2023-01-02T13:53:21.857Z,10.60
2023-01-02T13:56:05.351Z,10.67
2023-01-02T13:58:45.773Z,10.83
2023-01-02T14:01:43.723Z,11.33
2023-01-02T14:04:45.405Z,9.57
2023-01-02T14:07:48.796Z,11.97
2023-01-02T14:10:26.817Z,11.20
2023-01-02T14:13:00.740Z,13.20
2023-01-02T14:15:30.051Z,13.00
2023-01-02T14:18:04.942Z,13.87
2023-01-02T14:20:36.123Z,13.43
2023-01-02T14:23:08.868Z,12.87
2023-01-02T14:25:49.668Z,13.47
2023-01-02T14:28:24.860Z,12.17
2023-01-02T14:30:54.264Z,14.63
2023-01-02T14:33:33.175Z,13.00
2023-01-02T14:36:09.525Z,14.13
2023-01-02T14:38:43.484Z,13.50
2023-01-02T14:41:51.057Z,13.07
2023-01-02T14:44:20.760Z,12.50
2023-01-02T14:46:51.258Z,12.63
2023-01-02T14:49:27.113Z,13.57
2023-01-02T14:52:01.301Z,13.97
2023-01-02T14:54:40.578Z,14.27
2023-01-02T14:57:25.809Z,14.77
2023-01-02T14:59:55.368Z,16.63
2023-01-02T15:02:30.875Z,14.00
2023-01-02T15:05:07.524Z,15.17
2023-01-02T15:07:39.772Z,15.40
2023-01-02T15:10:14.272Z,15.47
2023-01-02T15:13:03.465Z,17.53
2023-01-02T15:15:36.641Z,13.13
2023-01-02T15:18:08.700Z,14.47
2023-01-02T15:20:37.571Z,14.93
2023-01-02T15:23:06.271Z,15.27
2023-01-02T15:25:39.315Z,14.50
2023-01-02T15:28:23.011Z,15.80
2023-01-02T15:31:01.005Z,15.57
2023-01-02T15:33:30.643Z,14.87
2023-01-02T15:36:02.824Z,16.00
2023-01-02T15:38:32.227Z,14.13
2023-01-02T15:41:02.360Z,14.03
2023-01-02T15:43:51.225Z,16.23
2023-01-02T15:46:20.956Z,13.90
2023-01-02T15:48:50.672Z,15.53
2023-01-02T15:51:40.516Z,15.77
2023-01-02T15:54:14.487Z,13.70
2023-01-02T15:56:44.758Z,14.30
2023-01-02T15:59:28.321Z,14.13
2023-01-02T16:01:57.407Z,15.53
2023-01-02T16:04:28.534Z,14.60
2023-01-02T16:06:58.897Z,15.37
2023-01-02T16:09:30.414Z,15.07
2023-01-02T16:12:03.209Z,15.17
2023-01-02T16:14:36.447Z,15.07
2023-01-02T16:17:06.953Z,15.10
2023-01-02T16:19:39.295Z,13.10
2023-01-02T16:22:18.724Z,15.07
2023-01-02T16:24:51.378Z,15.40
2023-01-02T16:27:28.286Z,13.80
2023-01-02T16:29:57.067Z,15.27
2023-01-02T16:32:29.010Z,13.40
2023-01-02T16:35:20.601Z,17.97
2023-01-02T16:37:54.761Z,17.53
2023-01-02T16:41:00.752Z,16.17
2023-01-02T16:43:37.995Z,14.97
2023-01-02T16:46:16.248Z,15.43
2023-01-02T16:48:45.810Z,13.70
2023-01-02T16:51:16.630Z,13.93
2023-01-02T16:53:46.107Z,15.30
2023-01-02T16:56:15.795Z,14.03
2023-01-02T16:58:45.981Z,14.27
2023-01-02T17:01:16.413Z,14.27
2023-01-02T17:03:45.719Z,16.63
2023-01-02T17:06:16.498Z,13.83
2023-01-02T17:08:45.169Z,15.37
2023-01-02T17:11:17.568Z,16.20
2023-01-02T17:13:47.692Z,15.03
2023-01-02T17:16:16.505Z,14.93
2023-01-02T17:18:45.239Z,15.37
2023-01-02T17:21:14.077Z,15.07
2023-01-02T17:23:43.068Z,13.77
2023-01-02T17:26:11.864Z,15.17
2023-01-02T17:28:40.682Z,13.67
2023-01-02T17:31:15.452Z,14.17
2023-01-02T17:33:44.580Z,14.67
2023-01-02T17:36:14.529Z,14.93
2023-01-02T17:38:43.294Z,14.17
2023-01-02T17:41:12.008Z,13.07
2023-01-02T17:44:01.610Z,12.53
2023-01-02T17:47:04.248Z,12.50
2023-01-02T17:49:21.035Z,11.90
2023-01-02T17:51:49.822Z,11.57
2023-01-02T17:54:19.766Z,13.27
2023-01-02T17:56:48.700Z,11.73
2023-01-02T17:59:19.311Z,12.23
2023-01-02T18:01:49.776Z,12.23
2023-01-02T18:04:19.154Z,12.40
2023-01-02T18:06:47.943Z,12.93
2023-01-02T18:09:16.907Z,9.90
2023-01-02T18:11:45.633Z,11.53
2023-01-02T18:14:18.909Z,11.23
2023-01-02T18:16:50.767Z,12.30
2023-01-02T18:19:24.221Z,12.33
2023-01-02T18:21:52.942Z,11.00
2023-01-02T18:24:26.778Z,11.47
2023-01-02T18:27:00.417Z,11.63
2023-01-02T18:29:29.454Z,11.73
2023-01-02T18:32:00.221Z,10.90
2023-01-02T18:34:47.723Z,11.70
2023-01-02T18:37:25.956Z,10.23
2023-01-02T18:39:55.641Z,11.03
2023-01-02T18:42:27.689Z,9.97
2023-01-02T18:45:00.151Z,9.97
2023-01-02T18:47:33.102Z,10.73
2023-01-02T18:50:24.207Z,10.87
2023-01-02T18:52:53.448Z,10.87
2023-01-02T18:55:27.389Z,10.10
2023-01-02T18:57:59.842Z,11.33
2023-01-02T19:00:30.747Z,11.33
2023-01-02T19:03:05.678Z,10.27
2023-01-02T19:05:36.610Z,12.93
2023-01-02T19:08:20.572Z,10.40
2023-01-02T19:10:51.414Z,10.37
2023-01-02T19:13:21.857Z,10.30
2023-01-02T19:15:52.022Z,11.07
2023-01-02T19:18:33.634Z,9.63
2023-01-02T19:21:28.279Z,10.43
2023-01-02T19:23:59.333Z,11.33
2023-01-02T19:26:33.340Z,10.97
2023-01-02T19:29:05.170Z,11.60
2023-01-02T19:31:42.521Z,10.47
2023-01-02T19:34:29.404Z,14.50
2023-01-02T19:37:10.217Z,13.70
2023-01-02T19:39:43.400Z,15.03
2023-01-02T19:42:22.138Z,13.97
2023-01-02T19:44:53.607Z,12.73
2023-01-02T19:47:25.148Z,13.33
2023-01-02T19:49:55.746Z,13.10
2023-01-02T19:52:25.976Z,13.57
2023-01-02T19:54:54.731Z,12.23
2023-01-02T19:57:25.041Z,14.90
2023-01-02T19:59:55.714Z,13.50
2023-01-02T20:02:25.213Z,11.70
2023-01-02T20:04:56.674Z,11.70
2023-01-02T20:07:27.143Z,13.73
2023-01-02T20:09:55.870Z,13.23
2023-01-02T20:12:40.556Z,12.30
2023-01-02T20:15:11.718Z,15.70
2023-01-02T20:17:43.621Z,15.20
2023-01-02T20:20:15.584Z,13.23
2023-01-02T20:22:45.062Z,12.93
2023-01-02T20:25:18.021Z,12.20
2023-01-02T20:27:46.980Z,13.57
2023-01-02T20:30:20.344Z,12.73
2023-01-02T20:32:52.734Z,12.47
2023-01-02T20:35:23.170Z,11.53
2023-01-02T20:37:52.058Z,12.13
2023-01-02T20:40:20.841Z,10.67
2023-01-02T20:42:49.720Z,13.97
2023-01-02T20:45:18.638Z,15.33
2023-01-02T20:47:47.446Z,13.93
2023-01-02T20:50:16.468Z,12.83
2023-01-02T20:52:46.915Z,11.90
2023-01-02T20:55:16.746Z,11.53
2023-01-02T20:57:48.481Z,14.93
2023-01-02T21:00:20.607Z,12.20
2023-01-02T21:02:49.601Z,10.10
2023-01-02T21:05:18.617Z,14.03
2023-01-02T21:07:49.058Z,13.57
2023-01-02T21:10:18.045Z,13.23
2023-01-02T21:13:04.482Z,12.80
2023-01-02T21:15:49.648Z,11.57
2023-01-02T21:18:20.506Z,11.77
2023-01-02T21:20:51.249Z,11.57
2023-01-02T21:23:22.759Z,13.27
2023-01-02T21:25:52.505Z,10.83
2023-01-02T21:28:22.588Z,10.77
2023-01-02T21:30:51.597Z,11.33
2023-01-02T21:33:21.800Z,11.10
2023-01-02T21:35:52.322Z,11.00
2023-01-02T21:38:24.130Z,10.97
2023-01-02T21:40:53.119Z,13.77
2023-01-02T21:43:22.429Z,11.37
2023-01-02T21:45:51.566Z,9.93
2023-01-02T21:48:20.469Z,12.50
2023-01-02T21:50:49.333Z,12.60
2023-01-02T21:53:17.992Z,12.17
2023-01-02T21:55:48.199Z,13.80
2023-01-02T21:58:16.928Z,13.37
2023-01-02T22:00:45.753Z,13.00
2023-01-02T22:03:14.616Z,14.37
2023-01-02T22:05:44.015Z,13.23
2023-01-02T22:08:12.706Z,15.03
2023-01-02T22:10:41.601Z,14.93
2023-01-02T22:13:11.708Z,12.87
2023-01-02T22:15:40.451Z,12.50
2023-01-02T22:18:09.284Z,13.43
2023-01-02T22:20:38.146Z,13.40
2023-01-02T22:23:06.998Z,12.67
2023-01-02T22:25:35.658Z,13.57
2023-01-02T22:28:04.617Z,13.27
2023-01-02T22:30:35.422Z,12.30
2023-01-02T22:33:04.839Z,13.60
2023-01-02T22:35:33.856Z,12.63
2023-01-02T22:38:02.658Z,15.70
2023-01-02T22:40:31.488Z,12.10
2023-01-02T22:43:02.677Z,14.63
2023-01-02T22:45:40.832Z,15.90
2023-01-02T22:48:18.218Z,14.67
2023-01-02T22:50:48.742Z,15.30
2023-01-02T22:53:22.059Z,15.40
2023-01-02T22:55:50.882Z,17.30
2023-01-02T22:58:20.257Z,15.37
2023-01-02T23:01:00.390Z,15.10
2023-01-02T23:03:30.731Z,14.43
2023-01-02T23:05:59.816Z,17.57
2023-01-02T23:08:28.647Z,15.57
2023-01-02T23:10:57.929Z,17.07
2023-01-02T23:13:26.854Z,13.13
2023-01-02T23:16:14.792Z,17.17
2023-01-02T23:19:01.221Z,15.23
2023-01-02T23:21:32.705Z,15.20
2023-01-02T23:24:01.864Z,19.17
2023-01-02T23:26:34.768Z,12.90
2023-01-02T23:29:07.147Z,17.03
2023-01-02T23:31:39.703Z,17.40
2023-01-02T23:34:12.092Z,18.20
2023-01-02T23:36:41.271Z,16.23
2023-01-02T23:39:12.166Z,20.20
2023-01-02T23:41:41.413Z,15.50
2023-01-02T23:44:11.145Z,15.97
2023-01-02T23:46:42.163Z,13.20
2023-01-02T23:49:12.229Z,16.37
2023-01-02T23:51:41.417Z,14.17
2023-01-02T23:54:12.277Z,17.33
2023-01-02T23:56:43.132Z,15.07
2023-01-02T23:59:13.560Z,15.67
